Time;durP1;ratioP1;P1;durP2;ratioP2;P2;SDS_P1;SDS_P2;PMS_P1;PMS_P2;Temp;Humidity;BMP_temperature;BMP_pressure;BME280_temperature;BME280_humidity;BME280_pressure;Samples;Min_cycle;Max_cycle;Signal;HPM_P1;HPM_P2
2023/03/16 00:02:08;;;;;;;1999.90;999.90;;;9.10;99.90;;;;;;5014737;28;20042;-79
2023/03/16 00:04:36;;;;;;;1999.90;999.90;;;9.00;99.90;;;;;;5013080;28;20026;-72
2023/03/16 00:07:03;;;;;;;1999.90;999.90;;;9.00;99.90;;;;;;5013973;28;20045;-79
2023/03/16 00:09:30;;;;;;;1999.90;999.90;;;9.00;99.90;;;;;;5014351;28;20394;-79
2023/03/16 00:11:57;;;;;;;1999.90;999.90;;;8.90;99.90;;;;;;5014468;28;20021;-71
2023/03/16 00:14:23;;;;;;;1999.90;999.90;;;9.00;99.90;;;;;;5013142;28;20083;-80
2023/03/16 00:16:49;;;;;;;1999.90;999.90;;;9.00;99.90;;;;;;4994765;28;20101;-79
2023/03/16 00:19:15;;;;;;;1999.90;999.90;;;9.00;99.90;;;;;;4994620;28;20113;-72
2023/03/16 00:21:40;;;;;;;1999.90;999.90;;;9.00;99.90;;;;;;5000241;28;20025;-79
2023/03/16 00:24:06;;;;;;;1999.90;999.90;;;9.00;99.90;;;;;;5014199;28;20033;-71
2023/03/16 00:26:31;;;;;;;1999.90;999.90;;;9.00;99.90;;;;;;5013402;28;20026;-79
2023/03/16 00:28:57;;;;;;;1999.90;999.90;;;8.90;99.90;;;;;;5014280;28;20145;-79
2023/03/16 00:31:23;;;;;;;1999.90;999.90;;;8.90;99.90;;;;;;5014035;28;20500;-71
2023/03/16 00:33:50;;;;;;;1999.90;999.90;;;8.90;99.90;;;;;;5014130;28;20029;-72
2023/03/16 00:36:16;;;;;;;1999.90;999.90;;;8.90;99.90;;;;;;5014057;28;20521;-71
2023/03/16 00:38:44;;;;;;;1999.90;999.90;;;8.80;99.90;;;;;;5014017;28;20068;-71
2023/03/16 00:41:13;;;;;;;1999.90;999.90;;;8.80;99.90;;;;;;5026153;28;20036;-79
2023/03/16 00:43:40;;;;;;;1999.90;999.90;;;8.80;99.90;;;;;;5033755;28;20439;-79
2023/03/16 00:46:11;;;;;;;1999.90;999.90;;;8.80;99.90;;;;;;5025379;28;20026;-79
2023/03/16 00:48:41;;;;;;;1999.90;999.90;;;8.80;99.90;;;;;;5013406;28;20074;-71
2023/03/16 00:51:08;;;;;;;1999.90;999.90;;;8.70;99.90;;;;;;5013923;28;20084;-78
2023/03/16 00:53:35;;;;;;;1999.90;999.90;;;8.60;99.90;;;;;;5013812;28;20018;-79
2023/03/16 00:56:03;;;;;;;1999.90;999.90;;;8.60;99.90;;;;;;5013591;28;20037;-72
2023/03/16 00:58:34;;;;;;;1999.90;999.90;;;8.60;99.90;;;;;;5013660;28;20044;-72
2023/03/16 01:01:12;;;;;;;1999.90;999.90;;;8.50;99.90;;;;;;5013914;28;20112;-79
2023/03/16 01:03:38;;;;;;;1999.90;999.90;;;8.50;99.90;;;;;;5013756;28;20370;-72
2023/03/16 01:06:13;;;;;;;1999.90;999.90;;;8.50;99.90;;;;;;5012080;28;20116;-79
2023/03/16 01:08:40;;;;;;;1999.90;999.90;;;8.50;99.90;;;;;;5013396;28;20385;-72
2023/03/16 01:11:09;;;;;;;1999.90;999.90;;;8.40;99.90;;;;;;5013358;28;20018;-79
2023/03/16 01:13:36;;;;;;;1999.90;999.90;;;8.40;99.90;;;;;;5013344;28;20477;-72
2023/03/16 01:16:02;;;;;;;1999.90;999.90;;;8.40;99.90;;;;;;4998080;28;20172;-79
2023/03/16 01:18:33;;;;;;;1999.90;999.90;;;8.40;99.90;;;;;;4993327;28;20052;-79
2023/03/16 01:21:00;;;;;;;1999.90;999.90;;;8.40;99.90;;;;;;4993525;28;20524;-78
2023/03/16 01:23:29;;;;;;;1999.90;999.90;;;8.40;99.90;;;;;;5013113;28;20025;-79
2023/03/16 01:25:55;;;;;;;1999.90;999.90;;;8.40;99.90;;;;;;5013051;28;20018;-79
2023/03/16 01:28:24;;;;;;;1999.90;999.90;;;8.30;99.90;;;;;;5013212;28;20025;-71
2023/03/16 01:30:56;;;;;;;1999.90;999.90;;;8.30;99.90;;;;;;5013174;28;20037;-79
2023/03/16 01:33:24;;;;;;;1999.90;999.90;;;8.30;99.90;;;;;;5013131;28;20061;-79
2023/03/16 01:35:52;;;;;;;1999.90;999.90;;;8.30;99.90;;;;;;5013005;28;20030;-79
2023/03/16 01:38:18;;;;;;;1999.90;999.90;;;8.20;99.90;;;;;;5013244;28;20026;-72
2023/03/16 01:40:44;;;;;;;1999.90;999.90;;;8.20;99.90;;;;;;5021807;28;20070;-71
2023/03/16 01:43:10;;;;;;;1999.90;999.90;;;8.10;99.90;;;;;;5032657;28;20014;-72
2023/03/16 01:46:03;;;;;;;1999.90;999.90;;;8.10;99.90;;;;;;5028368;28;20049;-79
2023/03/16 01:48:37;;;;;;;1999.90;999.90;;;8.10;99.90;;;;;;5012567;28;20046;-79
2023/03/16 01:51:08;;;;;;;1999.90;999.90;;;8.10;99.90;;;;;;5012918;28;20030;-79
2023/03/16 01:53:34;;;;;;;1999.90;999.90;;;8.10;99.90;;;;;;5013018;28;20025;-72
2023/03/16 01:56:03;;;;;;;1999.90;999.90;;;8.10;99.90;;;;;;5012914;28;20029;-79
2023/03/16 01:58:30;;;;;;;1999.90;999.90;;;8.10;99.90;;;;;;5012965;28;20053;-80
2023/03/16 02:00:57;;;;;;;1999.90;999.90;;;8.10;99.90;;;;;;5044531;28;20501;-79
2023/03/16 02:03:25;;;;;;;1999.90;999.90;;;8.20;99.90;;;;;;5012769;28;20512;-80
2023/03/16 02:05:59;;;;;;;1999.90;999.90;;;8.20;99.90;;;;;;5013034;28;20033;-71
2023/03/16 02:08:26;;;;;;;1999.90;999.90;;;8.20;99.90;;;;;;5012618;28;20535;-71
2023/03/16 02:10:55;;;;;;;1999.90;999.90;;;8.20;99.90;;;;;;5012725;28;20033;-71
2023/03/16 02:13:22;;;;;;;1999.90;999.90;;;8.30;99.90;;;;;;5012833;28;20037;-79
2023/03/16 02:15:49;;;;;;;1999.90;999.90;;;8.30;99.90;;;;;;5000046;28;20030;-79
2023/03/16 02:18:14;;;;;;;1999.90;999.90;;;8.30;99.90;;;;;;4993173;28;20037;-71
2023/03/16 02:21:01;;;;;;;1999.90;999.90;;;8.30;99.90;;;;;;4993337;28;20031;-72
2023/03/16 02:23:26;;;;;;;1999.90;999.90;;;8.30;99.90;;;;;;4992889;28;20030;-72
2023/03/16 02:26:06;;;;;;;1999.90;999.90;;;8.20;99.90;;;;;;4992704;28;20569;-79
2023/03/16 02:28:31;;;;;;;1999.90;999.90;;;8.10;99.90;;;;;;4996375;28;20034;-79
2023/03/16 02:30:57;;;;;;;1999.90;999.90;;;8.00;99.90;;;;;;4996722;28;20027;-71
2023/03/16 02:33:24;;;;;;;1999.90;999.90;;;7.90;99.90;;;;;;4996688;28;20025;-71
2023/03/16 02:35:49;;;;;;;1999.90;999.90;;;7.90;99.90;;;;;;4996823;28;20034;-79
2023/03/16 02:38:15;;;;;;;1999.90;999.90;;;7.90;99.90;;;;;;4996644;28;20482;-79
2023/03/16 02:40:42;;;;;;;1999.90;999.90;;;7.80;99.90;;;;;;5013313;28;20021;-71
2023/03/16 02:43:20;;;;;;;1999.90;999.90;;;7.80;99.90;;;;;;5035689;28;20022;-79
2023/03/16 02:45:52;;;;;;;1999.90;999.90;;;7.80;99.90;;;;;;5030237;28;20030;-71
2023/03/16 02:48:23;;;;;;;1999.90;999.90;;;7.80;99.90;;;;;;5015844;28;20041;-79
2023/03/16 02:50:51;;;;;;;1999.90;999.90;;;7.90;99.90;;;;;;5016041;28;20037;-79
2023/03/16 02:53:17;;;;;;;1999.90;999.90;;;7.90;99.90;;;;;;5016016;28;20515;-71
2023/03/16 02:55:45;;;;;;;1999.90;999.90;;;7.90;99.90;;;;;;5015856;28;20504;-79
2023/03/16 02:58:11;;;;;;;1999.90;999.90;;;7.90;99.90;;;;;;5015766;28;20072;-71
2023/03/16 03:00:37;;;;;;;1999.90;999.90;;;7.90;99.90;;;;;;5015876;28;20030;-72
2023/03/16 03:03:04;;;;;;;1999.90;999.90;;;7.90;99.90;;;;;;5015816;28;20033;-79
2023/03/16 03:05:29;;;;;;;1999.90;999.90;;;8.00;99.90;;;;;;5016093;28;20079;-79
2023/03/16 03:07:55;;;;;;;1999.90;999.90;;;8.00;99.90;;;;;;5015620;28;20022;-79
2023/03/16 03:10:21;;;;;;;1999.90;999.90;;;8.10;99.90;;;;;;5015530;28;20030;-72
2023/03/16 03:12:48;;;;;;;1999.90;999.90;;;8.20;99.90;;;;;;5015514;28;20030;-71
2023/03/16 03:15:15;;;;;;;1999.90;999.90;;;8.20;99.90;;;;;;5007645;28;20080;-76
2023/03/16 03:17:41;;;;;;;1999.90;999.90;;;8.30;99.90;;;;;;4996047;28;20022;-79
2023/03/16 03:20:16;;;;;;;1999.90;999.90;;;8.30;99.90;;;;;;4996771;28;20030;-79
2023/03/16 03:22:44;;;;;;;1999.90;999.90;;;8.20;99.90;;;;;;5010284;28;20021;-71
2023/03/16 03:25:12;;;;;;;1999.90;999.90;;;8.20;99.90;;;;;;5015271;28;20068;-71
2023/03/16 03:27:39;;;;;;;1999.90;999.90;;;8.20;99.90;;;;;;5014755;28;20388;-79
2023/03/16 03:30:06;;;;;;;1999.90;999.90;;;8.10;99.90;;;;;;5015828;28;20026;-79
2023/03/16 03:32:32;;;;;;;1999.90;999.90;;;8.00;99.90;;;;;;5016239;28;20037;-79
2023/03/16 03:34:57;;;;;;;1999.90;999.90;;;8.00;99.90;;;;;;5015807;28;20030;-79
2023/03/16 03:37:24;;;;;;;1999.90;999.90;;;7.90;99.90;;;;;;5015085;28;20029;-79
2023/03/16 03:39:49;;;;;;;1999.90;999.90;;;7.90;99.90;;;;;;5016808;28;20025;-71
2023/03/16 03:42:15;;;;;;;1999.90;999.90;;;7.80;99.90;;;;;;5034974;28;20071;-79
2023/03/16 03:44:41;;;;;;;1999.90;999.90;;;7.80;99.90;;;;;;5035413;28;20025;-79
2023/03/16 03:47:06;;;;;;;1999.90;999.90;;;7.70;99.90;;;;;;5018905;28;20042;-80
2023/03/16 03:49:32;;;;;;;1999.90;999.90;;;7.70;99.90;;;;;;5014454;28;20053;-72
2023/03/16 03:51:58;;;;;;;1999.90;999.90;;;7.60;99.90;;;;;;5015214;28;20060;-71
2023/03/16 03:54:24;;;;;;;1999.90;999.90;;;7.60;99.90;;;;;;5015133;28;20033;-79
2023/03/16 03:56:53;;;;;;;1999.90;999.90;;;7.50;99.90;;;;;;5015434;28;20026;-80
2023/03/16 03:59:19;;;;;;;1999.90;999.90;;;7.40;99.90;;;;;;5015152;28;20517;-79
2023/03/16 04:01:44;;;;;;;1999.90;999.90;;;7.40;99.90;;;;;;5014733;28;20060;-71
2023/03/16 04:04:10;;;;;;;1999.90;999.90;;;7.30;99.90;;;;;;5015069;28;20088;-71
2023/03/16 04:06:35;;;;;;;1999.90;999.90;;;7.30;99.90;;;;;;5014789;28;20037;-78
2023/03/16 04:09:01;;;;;;;1999.90;999.90;;;7.30;99.90;;;;;;5014927;28;20493;-71
2023/03/16 04:11:27;;;;;;;1999.90;999.90;;;7.20;99.90;;;;;;5014830;28;20033;-75
2023/03/16 04:13:52;;;;;;;1999.90;999.90;;;7.20;99.90;;;;;;5015119;28;20385;-79
2023/03/16 04:16:19;;;;;;;1999.90;999.90;;;7.20;99.90;;;;;;4997368;28;20034;-71
2023/03/16 04:18:45;;;;;;;1999.90;999.90;;;7.10;99.90;;;;;;4994608;28;20500;-71
2023/03/16 04:21:16;;;;;;;1999.90;999.90;;;7.10;99.90;;;;;;4997327;28;20050;-79
2023/03/16 04:23:42;;;;;;;1999.90;999.90;;;7.20;99.90;;;;;;5014800;28;20040;-79
2023/03/16 04:26:08;;;;;;;1999.90;999.90;;;7.20;99.90;;;;;;5014115;28;20025;-79
2023/03/16 04:28:34;;;;;;;1999.90;999.90;;;7.20;99.90;;;;;;5012304;28;20436;-80
2023/03/16 04:31:05;;;;;;;1999.90;999.90;;;7.30;99.90;;;;;;5014610;28;20104;-79
2023/03/16 04:33:32;;;;;;;1999.90;999.90;;;7.30;99.90;;;;;;5014216;28;20022;-79
2023/03/16 04:35:58;;;;;;;1999.90;999.90;;;7.30;99.90;;;;;;5013889;28;20058;-79
2023/03/16 04:38:24;;;;;;;1999.90;999.90;;;7.30;99.90;;;;;;5013782;28;20076;-71
2023/03/16 04:40:50;;;;;;;1999.90;999.90;;;7.30;99.90;;;;;;5023478;28;20034;-79
2023/03/16 04:43:16;;;;;;;1999.90;999.90;;;7.30;99.90;;;;;;5033615;28;20028;-79
2023/03/16 04:45:41;;;;;;;1999.90;999.90;;;7.30;99.90;;;;;;5028843;28;20049;-79
2023/03/16 04:48:08;;;;;;;1999.90;999.90;;;7.30;99.90;;;;;;5013586;28;20050;-79
2023/03/16 04:50:34;;;;;;;1999.90;999.90;;;7.30;99.90;;;;;;5013066;28;20091;-71
2023/03/16 04:53:00;;;;;;;1999.90;999.90;;;7.30;99.90;;;;;;5014099;28;20477;-79
2023/03/16 04:55:25;;;;;;;1999.90;999.90;;;7.30;99.90;;;;;;5013750;28;20034;-71
2023/03/16 04:57:51;;;;;;;1999.90;999.90;;;7.30;99.90;;;;;;5013747;28;20021;-71
2023/03/16 05:00:19;;;;;;;1999.90;999.90;;;7.20;99.90;;;;;;5013607;28;20113;-72
2023/03/16 05:02:45;;;;;;;1999.90;999.90;;;7.30;99.90;;;;;;5013288;28;20026;-79
2023/03/16 05:05:11;;;;;;;1999.90;999.90;;;7.30;99.90;;;;;;5013658;28;20022;-79
2023/03/16 05:07:36;;;;;;;1999.90;999.90;;;7.30;99.90;;;;;;5013416;28;20029;-71
2023/03/16 05:10:03;;;;;;;1999.90;999.90;;;7.20;99.90;;;;;;5013332;28;20049;-71
2023/03/16 05:12:28;;;;;;;1999.90;999.90;;;7.20;99.90;;;;;;5013562;28;20066;-80
2023/03/16 05:14:54;;;;;;;1999.90;999.90;;;7.20;99.90;;;;;;5007748;28;20030;-79
2023/03/16 05:17:21;;;;;;;1999.90;999.90;;;7.20;99.90;;;;;;4994044;28;20080;-72
2023/03/16 05:19:46;;;;;;;1999.90;999.90;;;7.10;99.90;;;;;;4993617;28;20077;-71
2023/03/16 05:22:12;;;;;;;1999.90;999.90;;;7.10;99.90;;;;;;5003520;28;20042;-72
2023/03/16 05:24:38;;;;;;;1999.90;999.90;;;7.00;99.90;;;;;;5013510;28;20026;-71
2023/03/16 05:27:03;;;;;;;1999.90;999.90;;;7.00;99.90;;;;;;5013298;28;20030;-80
2023/03/16 05:29:33;;;;;;;1999.90;999.90;;;7.00;99.90;;;;;;5012460;28;20118;-80
2023/03/16 05:31:59;;;;;;;1999.90;999.90;;;6.90;99.90;;;;;;5013211;28;20033;-80
2023/03/16 05:34:25;;;;;;;1999.90;999.90;;;6.90;99.90;;;;;;5013532;28;20413;-79
2023/03/16 05:36:50;;;;;;;1999.90;999.90;;;6.90;99.90;;;;;;5013106;28;20026;-71
2023/03/16 05:39:16;;;;;;;1999.90;999.90;;;6.90;99.90;;;;;;5013055;28;20041;-80
2023/03/16 05:41:42;;;;;;;1999.90;999.90;;;6.90;99.90;;;;;;5029209;28;20067;-78
2023/03/16 05:44:08;;;;;;;1999.90;999.90;;;6.90;99.90;;;;;;5032641;28;20083;-71
2023/03/16 05:46:34;;;;;;;1999.90;999.90;;;6.90;99.90;;;;;;5020674;28;20029;-71
2023/03/16 05:49:00;;;;;;;1999.90;999.90;;;6.90;99.90;;;;;;5012794;28;20034;-71
2023/03/16 05:51:25;;;;;;;1999.90;999.90;;;6.90;99.90;;;;;;5012946;28;20440;-72
2023/03/16 05:53:55;;;;;;;1999.90;999.90;;;6.90;99.90;;;;;;5012957;28;20489;-79
2023/03/16 05:56:24;;;;;;;1999.90;999.90;;;6.90;99.90;;;;;;5012935;28;20428;-79
2023/03/16 05:58:51;;;;;;;1999.90;999.90;;;6.90;99.90;;;;;;5012799;28;20037;-71
2023/03/16 06:01:19;;;;;;;1999.90;999.90;;;6.90;99.90;;;;;;5014420;28;20026;-71
2023/03/16 06:03:46;;;;;;;1999.90;999.90;;;6.90;99.90;;;;;;5016591;28;20497;-78
2023/03/16 06:06:12;;;;;;;1999.90;999.90;;;6.90;99.90;;;;;;5016850;28;20022;-80
2023/03/16 06:08:37;;;;;;;1999.90;999.90;;;6.90;99.90;;;;;;5017126;28;20075;-71
2023/03/16 06:11:03;;;;;;;1999.90;999.90;;;6.90;99.90;;;;;;5016613;28;20116;-80
2023/03/16 06:13:29;;;;;;;1999.90;999.90;;;6.90;99.90;;;;;;5016453;28;20056;-71
2023/03/16 06:15:55;;;;;;;1999.90;999.90;;;7.00;99.90;;;;;;5002861;28;20032;-71
2023/03/16 06:18:20;;;;;;;1999.90;999.90;;;6.90;99.90;;;;;;4997177;28;20038;-79
2023/03/16 06:20:46;;;;;;;1999.90;999.90;;;6.90;99.90;;;;;;4997167;28;20030;-79
2023/03/16 06:23:12;;;;;;;1999.90;999.90;;;6.90;99.90;;;;;;5021532;28;20035;-80
2023/03/16 06:25:38;;;;;;;1999.90;999.90;;;6.90;99.90;;;;;;5021212;28;20022;-71
2023/03/16 06:28:04;;;;;;;1999.90;999.90;;;6.90;99.90;;;;;;5016324;28;20036;-79
2023/03/16 06:30:30;;;;;;;1999.90;999.90;;;6.90;99.90;;;;;;5015410;28;20026;-71
2023/03/16 06:32:56;;;;;;;1999.90;999.90;;;6.90;99.90;;;;;;5016482;28;20443;-79
2023/03/16 06:35:22;;;;;;;1999.90;999.90;;;6.90;99.90;;;;;;5013221;28;20501;-80
2023/03/16 06:37:47;;;;;;;1999.90;999.90;;;6.90;99.90;;;;;;4996325;28;20085;-71
2023/03/16 06:40:13;;;;;;;1999.90;999.90;;;6.90;99.90;;;;;;5005366;28;20025;-71
2023/03/16 06:42:39;;;;;;;1999.90;999.90;;;7.00;99.90;;;;;;5035353;28;20404;-79
2023/03/16 06:45:05;;;;;;;1999.90;999.90;;;7.10;99.90;;;;;;5035791;28;20057;-79
2023/03/16 06:47:31;;;;;;;1999.90;999.90;;;7.10;99.90;;;;;;5015490;28;20049;-79
2023/03/16 06:49:57;;;;;;;1999.90;999.90;;;7.10;99.90;;;;;;5009664;28;20034;-79
2023/03/16 06:52:22;;;;;;;1999.90;999.90;;;7.10;99.90;;;;;;5006952;28;20040;-71
2023/03/16 06:54:48;;;;;;;1999.90;999.90;;;7.10;99.90;;;;;;5015042;28;20382;-71
2023/03/16 06:57:14;;;;;;;1999.90;999.90;;;7.20;99.90;;;;;;5019899;28;20112;-80
2023/03/16 06:59:40;;;;;;;1999.90;999.90;;;7.30;99.90;;;;;;5034695;28;20086;-79
2023/03/16 07:02:06;;;;;;;1999.90;999.90;;;7.30;99.90;;;;;;5031592;28;20033;-79
2023/03/16 07:04:33;;;;;;;1999.90;999.90;;;7.30;99.90;;;;;;5015022;28;20385;-71
2023/03/16 07:06:58;;;;;;;1999.90;999.90;;;7.40;99.90;;;;;;5014925;28;20022;-71
2023/03/16 07:09:24;;;;;;;1999.90;999.90;;;7.50;99.90;;;;;;5015415;28;20022;-71
2023/03/16 07:11:51;;;;;;;1999.90;999.90;;;7.60;99.90;;;;;;5009958;28;20025;-79
2023/03/16 07:14:18;;;;;;;1999.90;999.90;;;7.70;99.90;;;;;;5015865;28;20033;-79
2023/03/16 07:16:44;;;;;;;1999.90;999.90;;;7.70;99.90;;;;;;4994888;28;20026;-79
2023/03/16 07:19:10;;;;;;;1999.90;999.90;;;7.90;99.90;;;;;;5017314;28;20032;-72
2023/03/16 07:21:39;;;;;;;1999.90;999.90;;;8.00;99.90;;;;;;5008547;28;20115;-72
2023/03/16 07:24:06;;;;;;;1999.90;999.90;;;8.10;99.90;;;;;;5013833;28;20109;-78
2023/03/16 07:26:33;;;;;;;1999.90;999.90;;;8.20;99.90;;;;;;5024210;28;20033;-77
2023/03/16 07:28:58;;;;;;;1999.90;999.90;;;8.30;99.90;;;;;;5032569;28;20416;-79
2023/03/16 07:31:24;;;;;;;1999.90;999.90;;;8.50;99.90;;;;;;5032303;28;20029;-71
2023/03/16 07:33:50;;;;;;;1999.90;999.90;;;8.50;99.90;;;;;;5016825;28;20038;-72
2023/03/16 07:36:17;;;;;;;1999.90;999.90;;;8.70;99.90;;;;;;5013274;28;20409;-79
2023/03/16 07:38:42;;;;;;;1999.90;999.90;;;8.80;99.90;;;;;;5006215;28;20033;-72
2023/03/16 07:41:08;;;;;;;1999.90;999.90;;;8.90;99.90;;;;;;5017910;28;20489;-79
2023/03/16 07:43:34;;;;;;;1999.90;999.90;;;9.10;99.90;;;;;;5024268;28;20108;-71
2023/03/16 07:46:00;;;;;;;1999.90;999.90;;;9.30;99.90;;;;;;5010123;28;20030;-79
2023/03/16 07:48:26;;;;;;;1999.90;999.90;;;10.00;99.90;;;;;;5012654;28;20049;-77
2023/03/16 07:50:53;;;;;;;1999.90;999.90;;;11.70;99.90;;;;;;5021377;28;20029;-72
2023/03/16 07:53:19;;;;;;;1999.90;999.90;;;13.10;99.90;;;;;;5019291;28;20076;-79
2023/03/16 07:55:45;;;;;;;1999.90;999.90;;;13.40;99.90;;;;;;5028601;28;20038;-72
2023/03/16 07:58:11;;;;;;;1999.90;999.90;;;11.90;99.90;;;;;;5019618;28;20025;-72
2023/03/16 08:00:38;;;;;;;1999.90;999.90;;;11.10;99.90;;;;;;5004815;28;20461;-79
2023/03/16 08:03:04;;;;;;;1999.90;999.90;;;10.40;99.90;;;;;;5021335;28;20029;-79
2023/03/16 08:05:31;;;;;;;1999.90;999.90;;;10.20;99.90;;;;;;5006949;28;20559;-79
2023/03/16 08:07:57;;;;;;;1999.90;999.90;;;10.10;99.90;;;;;;5015898;28;20492;-76
2023/03/16 08:10:24;;;;;;;1999.90;999.90;;;10.20;99.90;;;;;;5019351;28;20033;-72
2023/03/16 08:12:50;;;;;;;1999.90;999.90;;;10.40;99.90;;;;;;5023598;28;20025;-72
2023/03/16 08:15:16;;;;;;;1999.90;999.90;;;10.70;99.90;;;;;;5008709;28;20078;-80
2023/03/16 08:17:41;;;;;;;1999.90;999.90;;;12.00;99.90;;;;;;5012840;28;20028;-79
2023/03/16 08:20:09;;;;;;;1999.90;999.90;;;14.10;99.90;;;;;;5016580;28;20476;-79
2023/03/16 08:22:36;;;;;;;1999.90;999.90;;;15.30;99.90;;;;;;5018047;28;20029;-73
2023/03/16 08:25:09;;;;;;;1999.90;999.90;;;15.70;99.90;;;;;;5023394;28;20034;-73
2023/03/16 08:27:36;;;;;;;1999.90;999.90;;;14.30;99.90;;;;;;5026077;28;20139;-80
2023/03/16 08:30:10;;;;;;;1999.90;999.90;;;13.90;99.90;;;;;;5015012;28;20037;-79
2023/03/16 08:32:36;;;;;;;1999.90;999.90;;;14.60;99.90;;;;;;5023596;28;20145;-79
2023/03/16 08:35:02;;;;;;;1999.90;999.90;;;15.70;99.90;;;;;;5017807;28;20549;-73
2023/03/16 08:37:28;;;;;;;1999.90;999.90;;;16.70;99.90;;;;;;5019306;28;20050;-73
2023/03/16 08:39:53;;;;;;;1999.90;999.90;;;17.00;99.90;;;;;;5014982;28;20085;-80
2023/03/16 08:42:19;;;;;;;1999.90;999.90;;;17.20;99.90;;;;;;5012549;28;20030;-79
2023/03/16 08:44:46;;;;;;;1999.90;999.90;;;17.30;99.90;;;;;;5011434;28;20448;-80
2023/03/16 08:47:13;;;;;;;1999.90;999.90;;;18.10;99.90;;;;;;5022584;28;20033;-80
2023/03/16 08:49:40;;;;;;;1999.90;999.90;;;18.20;99.90;;;;;;5013237;28;20136;-79
2023/03/16 08:52:09;;;;;;;1999.90;999.90;;;18.90;99.90;;;;;;5013350;28;20393;-80
2023/03/16 08:54:35;;;;;;;1999.90;999.90;;;18.60;99.90;;;;;;5024268;28;20025;-80
2023/03/16 08:57:01;;;;;;;1999.90;999.90;;;18.90;99.90;;;;;;5009627;28;20508;-73
2023/03/16 08:59:27;;;;;;;1999.90;999.90;;;19.50;99.90;;;;;;5017636;28;20484;-78
2023/03/16 09:01:53;;;;;;;1999.90;999.90;;;19.40;99.90;;;;;;5015419;28;20044;-80
2023/03/16 09:04:20;;;;;;;1999.90;999.90;;;20.30;99.90;;;;;;5014008;28;20040;-73
2023/03/16 09:06:46;;;;;;;1999.90;999.90;;;19.30;99.90;;;;;;5012177;28;20042;-80
2023/03/16 09:09:12;;;;;;;1999.90;999.90;;;18.50;99.90;;;;;;5022756;28;20045;-80
2023/03/16 09:11:39;;;;;;;1999.90;999.90;;;18.80;99.90;;;;;;5005332;28;20053;-73
2023/03/16 09:14:05;;;;;;;1999.90;999.90;;;19.00;99.90;;;;;;5010060;28;20025;-74
2023/03/16 09:16:31;;;;;;;1999.90;999.90;;;19.20;99.90;;;;;;5012009;28;20623;-74
2023/03/16 09:18:57;;;;;;;1999.90;999.90;;;18.60;99.90;;;;;;5011279;28;20104;-77
2023/03/16 09:21:23;;;;;;;1999.90;999.90;;;18.90;99.90;;;;;;5015456;28;20409;-74
2023/03/16 09:23:49;;;;;;;1999.90;999.90;;;18.50;99.90;;;;;;5016363;28;20029;-80
2023/03/16 09:26:15;;;;;;;1999.90;999.90;;;19.50;99.90;;;;;;5014283;28;20547;-73
2023/03/16 09:28:41;;;;;;;1999.90;999.90;;;20.00;99.90;;;;;;5013111;28;20105;-73
2023/03/16 09:31:08;;;;;;;1999.90;999.90;;;19.50;99.90;;;;;;5008968;28;20053;-73
2023/03/16 09:33:34;;;;;;;1999.90;999.90;;;19.30;99.90;;;;;;5011753;28;20499;-79
2023/03/16 09:36:01;;;;;;;1999.90;999.90;;;19.70;99.90;;;;;;5014036;28;20496;-73
2023/03/16 09:38:28;;;;;;;1999.90;999.90;;;19.60;99.90;;;;;;5009706;28;20143;-78
2023/03/16 09:41:00;;;;;;;1999.90;999.90;;;18.80;99.90;;;;;;5008376;28;20065;-73
2023/03/16 09:43:26;;;;;;;;;;;19.10;99.90;;;;;;5009588;28;20037;-73
2023/03/16 09:45:51;;;;;;;1999.90;999.90;;;17.50;99.90;;;;;;5009788;28;19920;-79
2023/03/16 09:48:19;;;;;;;1999.90;999.90;;;16.60;99.90;;;;;;5047376;28;20058;-78
2023/03/16 09:50:47;;;;;;;1999.90;999.90;;;16.10;99.90;;;;;;5012369;28;20153;-79
2023/03/16 09:53:28;;;;;;;1999.90;999.90;;;16.00;99.90;;;;;;5012698;28;20053;-72
2023/03/16 09:56:04;;;;;;;1999.90;999.90;;;15.70;99.90;;;;;;5016694;28;20033;-73
2023/03/16 09:58:33;;;;;;;1999.90;999.90;;;16.10;99.90;;;;;;5019619;28;20025;-78
2023/03/16 10:01:37;;;;;;;1999.90;999.90;;;16.50;99.90;;;;;;5012039;28;20034;-72
2023/03/16 10:04:15;;;;;;;1999.90;999.90;;;16.10;99.90;;;;;;5043447;28;20041;-77
2023/03/16 10:07:07;;;;;;;1999.90;999.90;;;16.10;99.90;;;;;;5014326;28;20038;-73
2023/03/16 10:09:55;;;;;;;1999.90;999.90;;;16.30;99.90;;;;;;5019222;28;20028;-73
2023/03/16 10:12:30;;;;;;;1999.90;999.90;;;16.40;99.90;;;;;;5019132;28;20106;-78
2023/03/16 10:15:11;;;;;;;1999.90;999.90;;;16.20;99.90;;;;;;5008396;28;20037;-78
2023/03/16 10:17:45;;;;;;;1999.90;999.90;;;15.90;99.90;;;;;;5009050;28;20095;-79
2023/03/16 10:20:17;;;;;;;1999.90;999.90;;;16.20;99.90;;;;;;5014285;28;20022;-72
2023/03/16 10:22:45;;;;;;;1999.90;999.90;;;16.20;99.90;;;;;;5017775;28;20779;-73
2023/03/16 10:25:49;;;;;;;1999.90;999.90;;;15.90;99.90;;;;;;5017093;28;20025;-78
2023/03/16 10:28:23;;;;;;;1999.90;999.90;;;16.00;99.90;;;;;;5015414;28;20080;-78
2023/03/16 10:30:52;;;;;;;1999.90;999.90;;;16.40;99.90;;;;;;5015426;28;20033;-77
2023/03/16 10:33:20;;;;;;;1999.90;999.90;;;16.50;99.90;;;;;;5016372;28;20495;-72
2023/03/16 10:36:14;;;;;;;1999.90;999.90;;;16.60;99.90;;;;;;5017571;28;20456;-72
2023/03/16 10:38:45;;;;;;;1999.90;999.90;;;16.50;99.90;;;;;;5025891;28;20034;-78
2023/03/16 10:41:17;;;;;;;1999.90;999.90;;;16.90;99.90;;;;;;5022928;28;20076;-77
2023/03/16 10:44:11;;;;;;;1999.90;999.90;;;16.70;99.90;;;;;;5006159;28;20038;-72
2023/03/16 10:46:41;;;;;;;1999.90;999.90;;;16.60;99.90;;;;;;5018144;28;20481;-72
2023/03/16 10:49:27;;;;;;;1999.90;999.90;;;16.70;99.90;;;;;;5009558;28;20045;-77
2023/03/16 10:51:56;;;;;;;1999.90;999.90;;;16.60;99.90;;;;;;5017897;28;20039;-79
2023/03/16 10:54:32;;;;;;;1999.90;999.90;;;16.70;99.90;;;;;;5004871;28;20076;-77
2023/03/16 10:56:59;;;;;;;1999.90;999.90;;;16.80;99.90;;;;;;5005836;28;20022;-76
2023/03/16 10:59:30;;;;;;;1999.90;999.90;;;16.80;99.90;;;;;;5013197;28;20397;-72
2023/03/16 11:01:57;;;;;;;1999.90;999.90;;;16.70;99.90;;;;;;5014250;28;20033;-78
2023/03/16 11:04:23;;;;;;;1999.90;999.90;;;16.90;99.90;;;;;;5028864;28;20045;-78
2023/03/16 11:06:53;;;;;;;1999.90;999.90;;;17.20;99.90;;;;;;5016854;28;20041;-78
2023/03/16 11:09:27;;;;;;;1999.90;999.90;;;17.20;99.90;;;;;;5024063;28;20034;-79
2023/03/16 11:11:52;;;;;;;1999.90;999.90;;;17.30;99.90;;;;;;5013975;28;20100;-73
2023/03/16 11:14:21;;;;;;;1999.90;999.90;;;17.50;99.90;;;;;;5015840;28;20034;-73
2023/03/16 11:17:03;;;;;;;1999.90;999.90;;;17.70;99.90;;;;;;5017713;28;20039;-79
2023/03/16 11:19:33;;;;;;;1999.90;999.90;;;18.00;99.90;;;;;;5004283;28;20109;-78
2023/03/16 11:22:05;;;;;;;1999.90;999.90;;;18.10;99.90;;;;;;5014214;28;20080;-78
2023/03/16 11:24:42;;;;;;;1999.90;999.90;;;18.40;99.90;;;;;;5021487;28;20077;-72
2023/03/16 11:27:20;;;;;;;1999.90;999.90;;;18.30;99.90;;;;;;5030817;28;20041;-73
2023/03/16 11:29:53;;;;;;;1999.90;999.90;;;18.00;99.90;;;;;;5010902;28;20552;-72
2023/03/16 11:32:26;;;;;;;1999.90;999.90;;;17.90;99.90;;;;;;5012087;28;20473;-78
2023/03/16 11:34:52;;;;;;;;;;;18.00;99.90;;;;;;5009172;28;20497;-77
2023/03/16 11:37:34;;;;;;;1999.90;999.90;;;18.10;99.90;;;;;;5008385;28;19976;-78
2023/03/16 11:40:13;;;;;;;1999.90;999.90;;;18.40;99.90;;;;;;5007488;28;20025;-78
2023/03/16 11:42:48;;;;;;;1999.90;999.90;;;18.50;99.90;;;;;;5015204;28;20627;-79
2023/03/16 11:45:16;;;;;;;1999.90;999.90;;;18.80;99.90;;;;;;5004656;28;20026;-78
2023/03/16 11:47:51;;;;;;;1999.90;999.90;;;18.80;99.90;;;;;;5015129;28;20050;-79
2023/03/16 11:50:27;;;;;;;1999.90;999.90;;;18.70;99.90;;;;;;5019255;28;20033;-73
2023/03/16 11:53:19;;;;;;;1999.90;999.90;;;18.90;99.90;;;;;;5009638;28;20045;-72
2023/03/16 11:56:12;;;;;;;1999.90;999.90;;;19.00;99.90;;;;;;5018306;28;20081;-79
2023/03/16 11:59:00;;;;;;;1999.90;999.90;;;19.20;99.90;;;;;;5018444;28;20026;-72
2023/03/16 12:01:30;;;;;;;1999.90;999.90;;;19.60;99.90;;;;;;5015946;28;20370;-72
2023/03/16 12:04:17;;;;;;;1999.90;999.90;;;19.50;99.90;;;;;;5018593;28;20029;-72
2023/03/16 12:06:59;;;;;;;1999.90;999.90;;;19.60;99.90;;;;;;5011263;28;20064;-73
2023/03/16 12:09:56;;;;;;;1999.90;999.90;;;19.60;99.90;;;;;;5015835;28;20030;-76
2023/03/16 12:12:42;;;;;;;1999.90;999.90;;;19.40;99.90;;;;;;5015215;28;20025;-73
2023/03/16 12:15:28;;;;;;;1999.90;999.90;;;19.60;99.90;;;;;;5004545;28;20052;-72